METAR Data
IDs: Format: Raw Decoded Include TAF

Data at: 0109 UTC 20 Jul 2019

METAR for:KIOW (Iowa City Muni, IA, US)
Text:KIOW 200052Z AUTO 19011KT 10SM CLR 34/26 A2974 RMK AO2 SLP062 T03390256 $
Temperature: 33.9°C ( 93°F)
Dewpoint: 25.6°C ( 78°F) [RH = 62%]
Pressure (altimeter):29.74 inches Hg (1007.2 mb) [Sea level pressure: 1006.2 mb]
Winds:from the S (190 degrees) at 13 MPH (11 knots; 5.7 m/s)
Visibility:10 or more sm (16+ km)
Ceiling:at least 12,000 feet AGL
Clouds:sky clear below 12,000 feet AGL
QC Flag:automated observation with no human augmentation; SOME DATA ABOVE MAY BE INACCURATE!!!"$" is an indication the sensor requires maintenance.